createdAt,value
2023-02-08T00:02:30.124Z,101838.66
2023-02-08T00:06:31.078Z,101842.06
2023-02-08T00:10:29.067Z,101844.53
2023-02-08T00:14:27.021Z,101850.05
2023-02-08T00:18:25.082Z,101859.72
2023-02-08T00:22:27.088Z,101863.35
2023-02-08T00:26:25.070Z,101868.39
2023-02-08T00:30:24.033Z,101870.10
2023-02-08T00:34:23.122Z,101867.77
2023-02-08T00:38:21.055Z,101871.45
2023-02-08T00:42:19.030Z,101867.88
2023-02-08T00:46:17.159Z,101869.89
2023-02-08T00:50:17.029Z,101866.75
2023-02-08T00:54:14.983Z,101866.55
2023-02-08T00:58:13.089Z,101877.27
2023-02-08T01:02:11.066Z,101878.52
2023-02-08T01:06:08.957Z,101878.58
2023-02-08T01:10:06.952Z,101880.66
2023-02-08T01:14:06.000Z,101882.17
2023-02-08T01:18:11.933Z,101881.55
2023-02-08T01:22:12.030Z,101885.32
2023-02-08T01:26:10.017Z,101887.76
2023-02-08T01:30:10.962Z,101885.09
2023-02-08T01:34:08.937Z,101888.41
2023-02-08T01:38:11.024Z,101891.45
2023-02-08T01:42:10.926Z,101889.41
2023-02-08T01:46:10.069Z,101893.33
2023-02-08T01:50:07.945Z,101893.67
2023-02-08T01:54:07.909Z,101895.69
2023-02-08T01:58:09.864Z,101896.55
2023-02-08T02:02:10.921Z,101901.61
2023-02-08T02:06:15.919Z,101902.78
2023-02-08T02:10:23.884Z,101900.80
2023-02-08T02:14:22.914Z,101905.23
2023-02-08T02:18:22.945Z,101907.20
2023-02-08T02:22:44.911Z,101910.10
2023-02-08T02:27:26.905Z,101908.12
2023-02-08T02:31:51.881Z,101910.97
2023-02-08T02:36:02.851Z,101918.23
2023-02-08T02:40:36.916Z,101917.08
2023-02-08T02:44:48.941Z,101912.32
2023-02-08T02:49:10.852Z,101909.73
2023-02-08T02:53:24.860Z,101914.98
2023-02-08T02:57:27.840Z,101920.58
2023-02-08T03:01:28.974Z,101921.94
2023-02-08T03:05:28.793Z,101927.84
2023-02-08T03:10:01.811Z,101931.80
2023-02-08T03:14:17.819Z,101933.15
2023-02-08T03:18:24.823Z,101939.40
2023-02-08T03:22:37.786Z,101945.73
2023-02-08T03:26:49.823Z,101955.16
2023-02-08T03:31:01.890Z,101958.27
2023-02-08T03:35:19.889Z,101963.80
2023-02-08T03:39:22.781Z,101965.46
2023-02-08T03:43:35.773Z,101964.40
2023-02-08T03:47:42.796Z,101966.91
2023-02-08T03:51:51.292Z,101970.20
2023-02-08T03:55:50.758Z,101967.48
2023-02-08T03:59:54.779Z,101977.02
2023-02-08T04:04:08.745Z,101974.66
2023-02-08T04:08:06.784Z,101974.29
2023-02-08T04:12:04.718Z,101974.44
2023-02-08T04:16:02.778Z,101981.38
2023-02-08T04:20:00.736Z,101981.58
2023-02-08T04:23:58.747Z,101982.31
2023-02-08T04:27:56.882Z,101988.19
2023-02-08T04:31:55.859Z,101992.80
2023-02-08T04:35:53.685Z,101995.44
2023-02-08T04:39:51.746Z,102001.17
2023-02-08T04:43:50.681Z,102003.89
2023-02-08T04:47:48.730Z,102009.15
2023-02-08T04:51:46.650Z,102016.38
2023-02-08T04:55:45.820Z,102019.33
2023-02-08T04:59:50.757Z,102028.86
2023-02-08T05:03:48.739Z,102026.73
2023-02-08T05:07:46.923Z,102029.05
2023-02-08T05:11:45.845Z,102033.86
2023-02-08T05:15:49.661Z,102039.00
2023-02-08T05:19:47.792Z,102046.55
2023-02-08T05:23:46.830Z,102053.63
2023-02-08T05:27:48.705Z,102060.02
2023-02-08T05:31:46.696Z,102065.98
2023-02-08T05:35:44.657Z,102071.11
2023-02-08T05:39:42.719Z,102079.95
2023-02-08T05:43:40.628Z,102082.34
2023-02-08T05:47:38.675Z,102083.50
2023-02-08T05:51:37.571Z,102091.35
2023-02-08T05:55:38.628Z,102090.56
2023-02-08T05:59:36.637Z,102102.57
2023-02-08T06:03:36.634Z,102105.73
2023-02-08T06:07:36.595Z,102106.34
2023-02-08T06:11:34.522Z,102114.08
2023-02-08T06:15:32.616Z,102121.39
2023-02-08T06:19:30.510Z,102126.91
2023-02-08T06:23:28.545Z,102130.36
2023-02-08T06:27:27.575Z,102138.52
2023-02-08T06:31:25.617Z,102140.77
2023-02-08T06:35:23.542Z,102144.94
2023-02-08T06:39:24.754Z,102144.88
2023-02-08T06:43:15.709Z,102148.02
2023-02-08T06:47:13.527Z,102148.27
2023-02-08T06:51:11.461Z,102151.04
2023-02-08T06:55:09.541Z,102152.00
2023-02-08T06:59:07.480Z,102150.44
2023-02-08T07:02:47.410Z,102144.09
2023-02-08T07:06:19.242Z,102140.59
2023-02-08T07:09:44.297Z,102138.64
2023-02-08T07:13:08.402Z,102140.22
2023-02-08T07:16:32.626Z,102138.95
2023-02-08T07:19:57.116Z,102139.05
2023-02-08T07:23:21.201Z,102145.48
2023-02-08T07:26:45.075Z,102151.52
2023-02-08T07:30:10.115Z,102149.50
2023-02-08T07:33:34.275Z,102151.23
2023-02-08T07:36:58.291Z,102153.48
2023-02-08T07:40:22.340Z,102154.17
2023-02-08T07:43:46.499Z,102157.70
2023-02-08T07:47:11.028Z,102158.40
2023-02-08T07:50:35.210Z,102164.55
2023-02-08T07:53:59.266Z,102159.69
2023-02-08T07:57:24.809Z,102160.02
2023-02-08T08:00:48.605Z,102159.91
2023-02-08T08:04:14.107Z,102163.61
2023-02-08T08:07:38.494Z,102163.87
2023-02-08T08:11:03.876Z,102162.78
2023-02-08T08:14:28.201Z,102166.27
2023-02-08T08:17:52.126Z,102170.36
2023-02-08T08:21:17.862Z,102173.14
2023-02-08T08:24:42.127Z,102174.50
2023-02-08T08:28:07.512Z,102172.71
2023-02-08T08:31:32.060Z,102174.39
2023-02-08T08:34:56.092Z,102175.71
2023-02-08T08:38:19.997Z,102185.83
2023-02-08T08:41:43.981Z,102192.35
2023-02-08T08:45:09.499Z,102196.22
2023-02-08T08:48:35.536Z,102196.17
2023-02-08T08:51:59.721Z,102203.52
2023-02-08T08:55:23.608Z,102213.86
2023-02-08T08:58:47.548Z,102217.23
2023-02-08T09:02:17.878Z,102221.23
2023-02-08T09:05:42.475Z,102224.63
2023-02-08T09:09:07.311Z,102221.29
2023-02-08T09:12:31.466Z,102218.52
2023-02-08T09:15:55.293Z,102220.17
2023-02-08T09:19:19.309Z,102219.98
2023-02-08T09:22:43.204Z,102217.64
2023-02-08T09:26:09.702Z,102218.92
2023-02-08T09:29:34.469Z,102218.70
2023-02-08T09:32:58.439Z,102224.96
2023-02-08T09:36:25.692Z,102224.78
2023-02-08T09:39:49.677Z,102221.70
2023-02-08T09:43:27.649Z,102221.98
2023-02-08T09:47:30.643Z,102228.01
2023-02-08T09:51:04.171Z,102229.39
2023-02-08T09:54:37.531Z,102230.28
2023-02-08T09:58:05.854Z,102230.34
2023-02-08T10:01:34.003Z,102229.55
2023-02-08T10:05:11.649Z,102228.09
2023-02-08T10:08:37.262Z,102234.58
2023-02-08T10:12:13.120Z,102239.46
2023-02-08T10:15:48.708Z,102239.12
2023-02-08T10:19:28.418Z,102235.63
2023-02-08T10:23:15.866Z,102234.81
2023-02-08T10:26:47.520Z,102238.30
2023-02-08T10:30:30.770Z,102236.55
2023-02-08T10:34:07.472Z,102230.86
2023-02-08T10:37:35.601Z,102234.50
2023-02-08T10:41:02.636Z,102236.68
2023-02-08T10:44:55.706Z,102230.44
2023-02-08T10:48:33.116Z,102222.97
2023-02-08T10:51:58.247Z,102218.29
2023-02-08T10:55:22.772Z,102218.95
2023-02-08T10:58:46.864Z,102218.57
2023-02-08T11:02:23.764Z,102218.70
2023-02-08T11:05:47.808Z,102220.12
2023-02-08T11:09:32.230Z,102219.88
2023-02-08T11:13:19.315Z,102209.68
2023-02-08T11:16:44.117Z,102204.01
2023-02-08T11:20:09.621Z,102203.69
2023-02-08T11:23:37.374Z,102207.73
2023-02-08T11:27:02.661Z,102204.92
2023-02-08T11:30:26.930Z,102199.50
2023-02-08T11:34:20.518Z,102190.70
2023-02-08T11:37:58.532Z,102189.11
2023-02-08T11:41:23.700Z,102192.83
2023-02-08T11:44:48.947Z,102187.59
2023-02-08T11:48:31.697Z,102187.80
2023-02-08T11:51:56.457Z,102182.69
2023-02-08T11:55:20.710Z,102173.52
2023-02-08T11:58:58.091Z,102165.52
2023-02-08T12:02:40.099Z,102165.55
2023-02-08T12:06:29.042Z,102169.04
2023-02-08T12:10:14.072Z,102167.04
2023-02-08T12:13:55.299Z,102161.45
2023-02-08T12:17:44.054Z,102159.34
2023-02-08T12:21:29.613Z,102159.30
2023-02-08T12:25:19.577Z,102163.72
2023-02-08T12:29:05.057Z,102162.55
2023-02-08T12:32:59.300Z,102159.38
2023-02-08T12:37:25.213Z,102161.92
2023-02-08T12:41:15.060Z,102159.78
2023-02-08T12:44:48.833Z,102159.75
2023-02-08T12:48:31.865Z,102160.21
2023-02-08T12:52:22.803Z,102155.52
2023-02-08T12:55:50.002Z,102155.61
2023-02-08T12:59:35.428Z,102157.63
2023-02-08T13:03:27.092Z,102153.25
2023-02-08T13:06:59.786Z,102152.52
2023-02-08T13:10:32.742Z,102145.69
2023-02-08T13:14:05.830Z,102140.59
2023-02-08T13:17:37.705Z,102137.33
2023-02-08T13:21:08.094Z,102137.98
2023-02-08T13:24:40.969Z,102138.56
2023-02-08T13:28:20.368Z,102139.77
2023-02-08T13:31:49.725Z,102127.88
2023-02-08T13:35:30.305Z,102122.54
2023-02-08T13:38:55.059Z,102120.62
2023-02-08T13:42:31.942Z,102114.15
2023-02-08T13:46:00.500Z,102107.79
2023-02-08T13:49:55.498Z,102107.41
2023-02-08T13:53:41.812Z,102100.86
2023-02-08T13:57:44.520Z,102095.67
2023-02-08T14:01:13.111Z,102091.11
2023-02-08T14:04:39.207Z,102091.40
2023-02-08T14:08:06.156Z,102088.07
2023-02-08T14:11:43.606Z,102089.40
2023-02-08T14:15:16.426Z,102083.48
2023-02-08T14:18:40.775Z,102094.64
2023-02-08T14:22:18.380Z,102094.71
2023-02-08T14:25:49.111Z,102100.79
2023-02-08T14:29:24.180Z,102106.03
2023-02-08T14:33:19.972Z,102106.13
2023-02-08T14:37:25.939Z,102104.62
2023-02-08T14:41:23.921Z,102102.23
2023-02-08T14:45:50.885Z,102107.20
2023-02-08T14:49:55.862Z,102119.21
2023-02-08T14:53:57.007Z,102123.02
2023-02-08T14:57:55.883Z,102121.34
2023-02-08T15:02:02.889Z,102113.77
2023-02-08T15:06:21.807Z,102100.41
2023-02-08T15:10:26.936Z,102095.14
2023-02-08T15:14:33.833Z,102095.95
2023-02-08T15:18:38.833Z,102098.30
2023-02-08T15:22:38.848Z,102105.64
2023-02-08T15:26:37.902Z,102099.90
2023-02-08T15:30:44.113Z,102098.86
2023-02-08T15:34:42.835Z,102102.48
2023-02-08T15:38:40.799Z,102104.33
2023-02-08T15:42:41.806Z,102101.86
2023-02-08T15:46:41.870Z,102106.63
2023-02-08T15:50:40.886Z,102106.23
2023-02-08T15:54:40.805Z,102107.17
2023-02-08T15:58:52.822Z,102113.75
2023-02-08T16:02:51.783Z,102111.14
2023-02-08T16:06:54.919Z,102105.12
2023-02-08T16:11:00.882Z,102108.55
2023-02-08T16:14:58.858Z,102110.60
2023-02-08T16:18:59.805Z,102115.61
2023-02-08T16:23:10.733Z,102117.64
2023-02-08T16:27:14.912Z,102112.53
2023-02-08T16:31:19.994Z,102108.96
2023-02-08T16:35:40.899Z,102107.15
2023-02-08T16:39:53.768Z,102100.92
2023-02-08T16:43:56.693Z,102105.69
2023-02-08T16:48:01.915Z,102109.33
2023-02-08T16:52:04.736Z,102106.95
2023-02-08T16:56:02.819Z,102112.52
2023-02-08T17:00:03.735Z,102097.84
2023-02-08T17:04:01.824Z,102092.84
2023-02-08T17:08:00.745Z,102099.31
2023-02-08T17:11:59.715Z,102099.69
2023-02-08T17:15:57.888Z,102097.01
2023-02-08T17:19:57.876Z,102106.35
2023-02-08T17:23:56.673Z,102108.42
2023-02-08T17:27:54.696Z,102113.84
2023-02-08T17:31:56.588Z,102111.58
2023-02-08T17:35:54.654Z,102112.52
2023-02-08T17:39:52.785Z,102110.20
2023-02-08T17:43:50.758Z,102114.46
2023-02-08T17:47:49.749Z,102110.48
2023-02-08T17:51:47.640Z,102113.46
2023-02-08T17:55:46.203Z,102118.45
2023-02-08T17:59:44.707Z,102118.97
2023-02-08T18:03:42.817Z,102119.44
2023-02-08T18:07:40.654Z,102114.14
2023-02-08T18:11:38.627Z,102111.61
2023-02-08T18:15:39.762Z,102103.45
2023-02-08T18:19:37.685Z,102102.95
2023-02-08T18:23:35.652Z,102099.88
2023-02-08T18:27:33.550Z,102096.00
2023-02-08T18:31:33.694Z,102094.14
2023-02-08T18:35:31.579Z,102094.17
2023-02-08T18:39:29.620Z,102097.48
2023-02-08T18:43:27.676Z,102095.11
2023-02-08T18:47:25.788Z,102090.16
2023-02-08T18:51:27.620Z,102081.09
2023-02-08T18:55:25.620Z,102073.10
2023-02-08T18:59:23.593Z,102073.77
2023-02-08T19:03:24.686Z,102072.80
2023-02-08T19:07:22.655Z,102073.81
2023-02-08T19:11:29.620Z,102074.27
2023-02-08T19:15:27.696Z,102076.36
2023-02-08T19:19:25.582Z,102072.85
2023-02-08T19:23:23.553Z,102065.79
2023-02-08T19:27:21.746Z,102066.02
2023-02-08T19:31:27.674Z,102062.73
2023-02-08T19:35:26.544Z,102061.64
2023-02-08T19:39:28.522Z,102058.08
2023-02-08T19:43:26.723Z,102059.04
2023-02-08T19:47:32.327Z,102048.91
2023-02-08T19:51:37.501Z,102047.98
2023-02-08T19:55:35.665Z,102041.17
2023-02-08T19:59:38.545Z,102031.70
2023-02-08T20:03:36.671Z,102034.08
2023-02-08T20:07:34.625Z,102038.20
2023-02-08T20:11:45.041Z,102037.46
2023-02-08T20:15:53.439Z,102044.61
2023-02-08T20:19:53.426Z,102047.04
2023-02-08T20:23:51.448Z,102050.73
2023-02-08T20:27:51.001Z,102050.33
2023-02-08T20:31:50.872Z,102048.83
2023-02-08T20:35:51.430Z,102046.45
2023-02-08T20:39:50.401Z,102040.73
2023-02-08T20:43:49.365Z,102041.38
2023-02-08T20:47:52.502Z,102036.61
2023-02-08T20:51:50.433Z,102028.38
2023-02-08T20:55:48.428Z,102024.05
2023-02-08T20:59:47.451Z,102026.91
2023-02-08T21:03:45.431Z,102033.67
2023-02-08T21:07:47.416Z,102022.86
2023-02-08T21:11:46.503Z,102012.17
2023-02-08T21:15:44.338Z,102014.66
2023-02-08T21:19:44.326Z,102018.99
2023-02-08T21:23:42.398Z,102008.98
2023-02-08T21:27:40.412Z,102009.17
2023-02-08T21:31:39.403Z,102012.98
2023-02-08T21:35:38.416Z,102011.52
2023-02-08T21:39:36.425Z,102010.33
2023-02-08T21:43:34.310Z,102010.35
2023-02-08T21:47:32.301Z,102015.66
2023-02-08T21:51:48.322Z,102002.14
2023-02-08T21:55:46.279Z,101985.98
2023-02-08T21:59:46.336Z,101981.41
2023-02-08T22:03:44.259Z,101982.30
2023-02-08T22:07:43.293Z,101980.75
2023-02-08T22:11:41.247Z,101974.80
2023-02-08T22:15:41.259Z,101976.85
2023-02-08T22:19:39.241Z,101976.60
2023-02-08T22:23:37.212Z,101969.82
2023-02-08T22:27:36.199Z,101960.57
2023-02-08T22:31:34.530Z,101957.27
2023-02-08T22:35:34.177Z,101952.23
2023-02-08T22:39:32.298Z,101949.09
2023-02-08T22:43:30.325Z,101951.77
2023-02-08T22:47:28.208Z,101957.83
2023-02-08T22:51:30.179Z,101956.77
2023-02-08T22:55:28.198Z,101947.54
2023-02-08T22:59:28.487Z,101943.66
2023-02-08T23:03:27.258Z,101948.31
2023-02-08T23:07:25.141Z,101944.30
2023-02-08T23:11:25.271Z,101949.59
2023-02-08T23:15:25.216Z,101953.59
2023-02-08T23:19:27.401Z,101944.59
2023-02-08T23:23:25.130Z,101937.81
2023-02-08T23:27:23.139Z,101931.48
2023-02-08T23:31:22.324Z,101927.88
2023-02-08T23:35:20.225Z,101915.52
2023-02-08T23:39:18.200Z,101908.98
2023-02-08T23:43:18.130Z,101898.29
2023-02-08T23:47:16.123Z,101895.41
2023-02-08T23:51:22.136Z,101894.05
2023-02-08T23:55:21.558Z,101895.77
2023-02-08T23:59:19.166Z,101891.44
